• Join FlightAware (Why Join?)
  • Login
  • US Flag 
12:45AM EDT


 

Airport Tracker/Info


-or-


 

Live Flight TrackerFlight Track Log ✈ KAP2 ✈ 07-Sep-2013 ✈ KBOS - KMVY

Flight Track Log - Related Links

Times and Time Zones

All times are in EDT time to prevent confusion due to time zone crossing. See the KAP2 flight status page for this flight to view local times or setup timezone preferences in your user account.

Time Position Orientation Groundspeed Altitude Reporting Facility
EDT Latitude Longitude Course Direction KTS MPH feet Rate Location/Type
08:02AM 42.3500 -71.0167 166° South 128 147 700  Level KA90
08:03AM 42.3000 -71.0000 166° South 135 155 1,800 840 Climbing KA90
08:04AM 42.2667 -70.9833 160° South 131 151 2,900 720 Climbing KA90
08:05AM 42.2333 -70.9667 160° South 135 155 3,500 240 Climbing KA90
08:06AM 42.1833 -70.9333 154° Southeast 168 193 3,500 -60 Level KA90
08:07AM 42.1500 -70.9167 160° South 175 201 3,400 -60 Descending KA90
08:08AM 42.1000 -70.9000 166° South 166 191 3,400  Level KA90
08:09AM 42.0667 -70.8833 160° South 161 185 3,400  Level KA90
08:10AM 42.0333 -70.8667 160° South 160 184 3,400  Level KA90
08:12AM 41.9702 -70.8396 162° South  Level FlightAware Approximate
08:19AM 41.7084 -70.7356 164° South  Level FlightAware Approximate
08:20AM 41.6710 -70.7210 164° South  Level FlightAware Approximate
08:21AM 41.6335 -70.7065 164° South  Level FlightAware Approximate
08:22AM 41.5993 -70.6831 164° South  Level FlightAware Approximate
08:23AM 41.5618 -70.6690 164° South  Level FlightAware Approximate
08:24AM 41.5243 -70.6549 164° South  Level FlightAware Approximate
08:25AM 41.4867 -70.6408 164° South  Level FlightAware Approximate
08:26AM 41.4492 -70.6264 163° South  Level FlightAware Approximate
08:27AM 41.4119 -70.6114 163° South  Level FlightAware Approximate
08:28AM 41.3934 -70.6139 163° South  Level Estimated
08:29AM 41.3934 -70.6139 163° South  Level Estimated
08:30AM 41.3934 -70.6139 163° South  Level Estimated
08:31AM 41.3934 -70.6139 163° South  Level Estimated
08:32AM 41.3934 -70.6139 163° South  Level Estimated
08:33AM 41.3934 -70.6139 163° South  Level Estimated